sensor_id;sensor_type;location;lat;lon;timestamp;P1;durP1;ratioP1;P2;durP2;ratioP2
4397;SDS011;2213;49.720;7.296;2023-03-03T00:01:55;6.67;;;4.33;;
4397;SDS011;2213;49.720;7.296;2023-03-03T00:04:24;8.27;;;4.30;;
4397;SDS011;2213;49.720;7.296;2023-03-03T00:06:53;9.67;;;3.97;;
4397;SDS011;2213;49.720;7.296;2023-03-03T00:09:23;11.10;;;4.53;;
4397;SDS011;2213;49.720;7.296;2023-03-03T00:11:54;8.37;;;4.30;;
4397;SDS011;2213;49.720;7.296;2023-03-03T00:14:29;19.03;;;5.30;;
4397;SDS011;2213;49.720;7.296;2023-03-03T00:17:00;10.00;;;4.53;;
4397;SDS011;2213;49.720;7.296;2023-03-03T00:19:44;8.40;;;4.67;;
4397;SDS011;2213;49.720;7.296;2023-03-03T00:22:13;5.87;;;3.73;;
4397;SDS011;2213;49.720;7.296;2023-03-03T00:24:53;10.30;;;4.90;;
4397;SDS011;2213;49.720;7.296;2023-03-03T00:27:25;7.73;;;4.60;;
4397;SDS011;2213;49.720;7.296;2023-03-03T00:29:59;9.63;;;4.93;;
4397;SDS011;2213;49.720;7.296;2023-03-03T00:32:30;12.47;;;4.70;;
4397;SDS011;2213;49.720;7.296;2023-03-03T00:35:18;12.00;;;5.10;;
4397;SDS011;2213;49.720;7.296;2023-03-03T00:37:54;11.37;;;5.23;;
4397;SDS011;2213;49.720;7.296;2023-03-03T00:40:26;11.40;;;4.73;;
4397;SDS011;2213;49.720;7.296;2023-03-03T00:43:00;8.53;;;4.30;;
4397;SDS011;2213;49.720;7.296;2023-03-03T00:45:46;10.77;;;5.40;;
4397;SDS011;2213;49.720;7.296;2023-03-03T00:48:21;6.20;;;4.00;;
4397;SDS011;2213;49.720;7.296;2023-03-03T00:50:54;8.33;;;4.83;;
4397;SDS011;2213;49.720;7.296;2023-03-03T00:53:25;7.70;;;4.30;;
4397;SDS011;2213;49.720;7.296;2023-03-03T00:55:57;11.50;;;4.90;;
4397;SDS011;2213;49.720;7.296;2023-03-03T00:58:26;9.17;;;4.50;;
4397;SDS011;2213;49.720;7.296;2023-03-03T01:00:58;7.00;;;4.40;;
4397;SDS011;2213;49.720;7.296;2023-03-03T01:03:30;7.80;;;4.33;;
4397;SDS011;2213;49.720;7.296;2023-03-03T01:06:01;7.00;;;3.90;;
4397;SDS011;2213;49.720;7.296;2023-03-03T01:08:32;10.20;;;4.97;;
4397;SDS011;2213;49.720;7.296;2023-03-03T01:11:03;9.57;;;4.80;;
4397;SDS011;2213;49.720;7.296;2023-03-03T01:13:36;8.00;;;3.43;;
4397;SDS011;2213;49.720;7.296;2023-03-03T01:16:11;6.13;;;4.10;;
4397;SDS011;2213;49.720;7.296;2023-03-03T01:18:41;7.93;;;3.73;;
4397;SDS011;2213;49.720;7.296;2023-03-03T01:21:11;8.63;;;4.53;;
4397;SDS011;2213;49.720;7.296;2023-03-03T01:23:40;19.73;;;3.73;;
4397;SDS011;2213;49.720;7.296;2023-03-03T01:26:11;5.90;;;3.83;;
4397;SDS011;2213;49.720;7.296;2023-03-03T01:28:42;9.30;;;4.83;;
4397;SDS011;2213;49.720;7.296;2023-03-03T01:31:12;10.07;;;4.97;;
4397;SDS011;2213;49.720;7.296;2023-03-03T01:33:42;6.17;;;4.47;;
4397;SDS011;2213;49.720;7.296;2023-03-03T01:36:12;4.30;;;3.60;;
4397;SDS011;2213;49.720;7.296;2023-03-03T01:38:42;9.00;;;4.50;;
4397;SDS011;2213;49.720;7.296;2023-03-03T01:41:12;9.40;;;3.73;;
4397;SDS011;2213;49.720;7.296;2023-03-03T01:43:42;9.60;;;3.87;;
4397;SDS011;2213;49.720;7.296;2023-03-03T01:49:24;6.53;;;4.20;;
4397;SDS011;2213;49.720;7.296;2023-03-03T01:52:00;5.10;;;3.40;;
4397;SDS011;2213;49.720;7.296;2023-03-03T01:54:37;6.77;;;4.20;;
4397;SDS011;2213;49.720;7.296;2023-03-03T01:57:12;6.13;;;4.33;;
4397;SDS011;2213;49.720;7.296;2023-03-03T01:59:47;6.07;;;4.33;;
4397;SDS011;2213;49.720;7.296;2023-03-03T02:02:22;7.57;;;4.50;;
4397;SDS011;2213;49.720;7.296;2023-03-03T02:04:54;9.80;;;4.67;;
4397;SDS011;2213;49.720;7.296;2023-03-03T02:07:24;6.33;;;3.47;;
4397;SDS011;2213;49.720;7.296;2023-03-03T02:09:58;9.90;;;3.30;;
4397;SDS011;2213;49.720;7.296;2023-03-03T02:12:35;7.23;;;4.30;;
4397;SDS011;2213;49.720;7.296;2023-03-03T02:15:19;6.33;;;3.87;;
4397;SDS011;2213;49.720;7.296;2023-03-03T02:17:53;6.33;;;4.10;;
4397;SDS011;2213;49.720;7.296;2023-03-03T02:20:27;6.17;;;3.43;;
4397;SDS011;2213;49.720;7.296;2023-03-03T02:23:20;8.47;;;3.83;;
4397;SDS011;2213;49.720;7.296;2023-03-03T02:26:09;9.10;;;3.93;;
4397;SDS011;2213;49.720;7.296;2023-03-03T02:28:42;6.07;;;3.53;;
4397;SDS011;2213;49.720;7.296;2023-03-03T02:31:12;4.77;;;3.00;;
4397;SDS011;2213;49.720;7.296;2023-03-03T02:33:45;6.93;;;4.03;;
4397;SDS011;2213;49.720;7.296;2023-03-03T02:36:17;8.33;;;3.57;;
4397;SDS011;2213;49.720;7.296;2023-03-03T02:38:52;7.80;;;3.67;;
4397;SDS011;2213;49.720;7.296;2023-03-03T02:41:32;5.87;;;3.40;;
4397;SDS011;2213;49.720;7.296;2023-03-03T02:44:07;6.67;;;3.60;;
4397;SDS011;2213;49.720;7.296;2023-03-03T02:46:40;7.57;;;4.17;;
4397;SDS011;2213;49.720;7.296;2023-03-03T02:49:13;5.53;;;3.73;;
4397;SDS011;2213;49.720;7.296;2023-03-03T02:51:46;6.73;;;3.50;;
4397;SDS011;2213;49.720;7.296;2023-03-03T02:54:17;8.03;;;3.60;;
4397;SDS011;2213;49.720;7.296;2023-03-03T02:56:50;5.37;;;2.93;;
4397;SDS011;2213;49.720;7.296;2023-03-03T02:59:20;7.87;;;4.00;;
4397;SDS011;2213;49.720;7.296;2023-03-03T03:01:50;7.77;;;4.37;;
4397;SDS011;2213;49.720;7.296;2023-03-03T03:04:20;7.13;;;3.63;;
4397;SDS011;2213;49.720;7.296;2023-03-03T03:06:53;6.67;;;3.53;;
4397;SDS011;2213;49.720;7.296;2023-03-03T03:09:23;6.50;;;3.80;;
4397;SDS011;2213;49.720;7.296;2023-03-03T03:11:55;11.00;;;3.63;;
4397;SDS011;2213;49.720;7.296;2023-03-03T03:14:25;4.20;;;3.47;;
4397;SDS011;2213;49.720;7.296;2023-03-03T03:16:55;7.90;;;3.30;;
4397;SDS011;2213;49.720;7.296;2023-03-03T03:19:25;5.60;;;3.57;;
4397;SDS011;2213;49.720;7.296;2023-03-03T03:21:55;6.63;;;3.80;;
4397;SDS011;2213;49.720;7.296;2023-03-03T03:24:25;7.27;;;3.27;;
4397;SDS011;2213;49.720;7.296;2023-03-03T03:26:56;5.37;;;3.60;;
4397;SDS011;2213;49.720;7.296;2023-03-03T03:29:27;6.30;;;3.50;;
4397;SDS011;2213;49.720;7.296;2023-03-03T03:31:56;6.37;;;3.37;;
4397;SDS011;2213;49.720;7.296;2023-03-03T03:34:26;6.23;;;3.73;;
4397;SDS011;2213;49.720;7.296;2023-03-03T03:36:54;5.00;;;3.20;;
4397;SDS011;2213;49.720;7.296;2023-03-03T03:39:25;9.70;;;4.70;;
4397;SDS011;2213;49.720;7.296;2023-03-03T03:41:54;6.07;;;3.60;;
4397;SDS011;2213;49.720;7.296;2023-03-03T03:44:26;5.47;;;3.50;;
4397;SDS011;2213;49.720;7.296;2023-03-03T03:46:55;6.37;;;3.43;;
4397;SDS011;2213;49.720;7.296;2023-03-03T03:49:25;6.80;;;4.03;;
4397;SDS011;2213;49.720;7.296;2023-03-03T03:51:55;7.60;;;3.90;;
4397;SDS011;2213;49.720;7.296;2023-03-03T03:54:24;5.70;;;3.30;;
4397;SDS011;2213;49.720;7.296;2023-03-03T03:56:54;5.23;;;3.70;;
4397;SDS011;2213;49.720;7.296;2023-03-03T03:59:24;9.60;;;3.93;;
4397;SDS011;2213;49.720;7.296;2023-03-03T04:01:54;4.37;;;3.27;;
4397;SDS011;2213;49.720;7.296;2023-03-03T04:04:23;4.70;;;3.00;;
4397;SDS011;2213;49.720;7.296;2023-03-03T04:06:53;5.07;;;3.17;;
4397;SDS011;2213;49.720;7.296;2023-03-03T04:09:23;5.40;;;3.37;;
4397;SDS011;2213;49.720;7.296;2023-03-03T04:11:51;4.63;;;2.70;;
4397;SDS011;2213;49.720;7.296;2023-03-03T04:14:22;6.90;;;3.50;;
4397;SDS011;2213;49.720;7.296;2023-03-03T04:16:53;3.30;;;3.00;;
4397;SDS011;2213;49.720;7.296;2023-03-03T04:19:23;8.13;;;3.70;;
4397;SDS011;2213;49.720;7.296;2023-03-03T04:21:52;7.37;;;3.63;;
4397;SDS011;2213;49.720;7.296;2023-03-03T04:24:21;6.80;;;3.77;;
4397;SDS011;2213;49.720;7.296;2023-03-03T04:26:51;16.43;;;7.37;;
4397;SDS011;2213;49.720;7.296;2023-03-03T04:29:20;6.50;;;3.60;;
4397;SDS011;2213;49.720;7.296;2023-03-03T04:31:51;5.73;;;3.60;;
4397;SDS011;2213;49.720;7.296;2023-03-03T04:34:21;4.33;;;2.67;;
4397;SDS011;2213;49.720;7.296;2023-03-03T04:36:50;5.57;;;3.40;;
4397;SDS011;2213;49.720;7.296;2023-03-03T04:39:20;5.77;;;3.43;;
4397;SDS011;2213;49.720;7.296;2023-03-03T04:41:49;9.10;;;3.23;;
4397;SDS011;2213;49.720;7.296;2023-03-03T04:44:19;5.90;;;3.40;;
4397;SDS011;2213;49.720;7.296;2023-03-03T04:46:48;3.90;;;3.00;;
4397;SDS011;2213;49.720;7.296;2023-03-03T04:49:19;7.37;;;3.73;;
4397;SDS011;2213;49.720;7.296;2023-03-03T04:51:48;8.23;;;4.40;;
4397;SDS011;2213;49.720;7.296;2023-03-03T04:54:17;5.77;;;3.67;;
4397;SDS011;2213;49.720;7.296;2023-03-03T04:56:46;5.20;;;3.17;;
4397;SDS011;2213;49.720;7.296;2023-03-03T04:59:15;6.40;;;3.67;;
4397;SDS011;2213;49.720;7.296;2023-03-03T05:01:45;4.53;;;3.10;;
4397;SDS011;2213;49.720;7.296;2023-03-03T05:04:15;4.50;;;3.20;;
4397;SDS011;2213;49.720;7.296;2023-03-03T05:06:46;5.87;;;3.53;;
4397;SDS011;2213;49.720;7.296;2023-03-03T05:09:15;8.40;;;4.23;;
4397;SDS011;2213;49.720;7.296;2023-03-03T05:11:45;6.30;;;3.50;;
4397;SDS011;2213;49.720;7.296;2023-03-03T05:14:15;5.57;;;3.90;;
4397;SDS011;2213;49.720;7.296;2023-03-03T05:16:45;5.40;;;3.53;;
4397;SDS011;2213;49.720;7.296;2023-03-03T05:19:14;7.47;;;3.70;;
4397;SDS011;2213;49.720;7.296;2023-03-03T05:21:44;13.47;;;4.30;;
4397;SDS011;2213;49.720;7.296;2023-03-03T05:24:15;4.97;;;3.87;;
4397;SDS011;2213;49.720;7.296;2023-03-03T05:26:45;6.30;;;3.77;;
4397;SDS011;2213;49.720;7.296;2023-03-03T05:29:15;4.83;;;2.80;;
4397;SDS011;2213;49.720;7.296;2023-03-03T05:31:45;6.87;;;4.20;;
4397;SDS011;2213;49.720;7.296;2023-03-03T05:34:15;6.77;;;3.77;;
4397;SDS011;2213;49.720;7.296;2023-03-03T05:36:47;6.27;;;3.70;;
4397;SDS011;2213;49.720;7.296;2023-03-03T05:39:18;9.30;;;4.33;;
4397;SDS011;2213;49.720;7.296;2023-03-03T05:41:48;12.30;;;3.83;;
4397;SDS011;2213;49.720;7.296;2023-03-03T05:44:19;8.37;;;4.40;;
4397;SDS011;2213;49.720;7.296;2023-03-03T05:46:47;7.40;;;3.70;;
4397;SDS011;2213;49.720;7.296;2023-03-03T05:49:17;5.77;;;3.93;;
4397;SDS011;2213;49.720;7.296;2023-03-03T05:51:47;6.10;;;3.63;;
4397;SDS011;2213;49.720;7.296;2023-03-03T05:54:19;8.60;;;4.50;;
4397;SDS011;2213;49.720;7.296;2023-03-03T05:56:49;8.77;;;3.63;;
4397;SDS011;2213;49.720;7.296;2023-03-03T05:59:19;5.53;;;4.40;;
4397;SDS011;2213;49.720;7.296;2023-03-03T06:01:50;14.20;;;4.87;;
4397;SDS011;2213;49.720;7.296;2023-03-03T06:04:19;6.43;;;4.20;;
4397;SDS011;2213;49.720;7.296;2023-03-03T06:06:50;5.97;;;3.67;;
4397;SDS011;2213;49.720;7.296;2023-03-03T06:09:21;5.03;;;3.63;;
4397;SDS011;2213;49.720;7.296;2023-03-03T06:11:51;8.30;;;4.50;;
4397;SDS011;2213;49.720;7.296;2023-03-03T06:14:21;5.10;;;3.50;;
4397;SDS011;2213;49.720;7.296;2023-03-03T06:16:52;6.17;;;3.63;;
4397;SDS011;2213;49.720;7.296;2023-03-03T06:19:24;4.63;;;3.30;;
4397;SDS011;2213;49.720;7.296;2023-03-03T06:21:54;6.37;;;4.07;;
4397;SDS011;2213;49.720;7.296;2023-03-03T06:24:26;8.63;;;4.70;;
4397;SDS011;2213;49.720;7.296;2023-03-03T06:26:58;12.27;;;4.40;;
4397;SDS011;2213;49.720;7.296;2023-03-03T06:29:28;9.93;;;4.70;;
4397;SDS011;2213;49.720;7.296;2023-03-03T06:31:58;6.57;;;3.80;;
4397;SDS011;2213;49.720;7.296;2023-03-03T06:34:28;12.30;;;4.87;;
4397;SDS011;2213;49.720;7.296;2023-03-03T06:37:00;9.37;;;5.00;;
4397;SDS011;2213;49.720;7.296;2023-03-03T06:39:30;14.10;;;4.80;;
4397;SDS011;2213;49.720;7.296;2023-03-03T06:41:59;7.83;;;4.20;;
4397;SDS011;2213;49.720;7.296;2023-03-03T06:44:29;7.60;;;4.40;;
4397;SDS011;2213;49.720;7.296;2023-03-03T06:46:59;7.03;;;4.20;;
4397;SDS011;2213;49.720;7.296;2023-03-03T06:49:28;9.00;;;4.40;;
4397;SDS011;2213;49.720;7.296;2023-03-03T06:51:57;10.23;;;4.83;;
4397;SDS011;2213;49.720;7.296;2023-03-03T06:54:37;8.50;;;4.70;;
4397;SDS011;2213;49.720;7.296;2023-03-03T06:57:16;7.30;;;4.60;;
4397;SDS011;2213;49.720;7.296;2023-03-03T06:59:54;10.57;;;5.43;;
4397;SDS011;2213;49.720;7.296;2023-03-03T07:02:27;11.50;;;4.50;;
4397;SDS011;2213;49.720;7.296;2023-03-03T07:04:58;6.00;;;4.53;;
4397;SDS011;2213;49.720;7.296;2023-03-03T07:07:30;7.50;;;4.80;;
4397;SDS011;2213;49.720;7.296;2023-03-03T07:10:01;11.73;;;5.27;;
4397;SDS011;2213;49.720;7.296;2023-03-03T07:12:44;6.03;;;4.13;;
4397;SDS011;2213;49.720;7.296;2023-03-03T07:15:16;6.67;;;4.33;;
4397;SDS011;2213;49.720;7.296;2023-03-03T07:17:52;15.53;;;4.63;;
4397;SDS011;2213;49.720;7.296;2023-03-03T07:20:27;8.23;;;5.17;;
4397;SDS011;2213;49.720;7.296;2023-03-03T07:23:04;8.50;;;5.20;;
4397;SDS011;2213;49.720;7.296;2023-03-03T07:25:48;10.27;;;5.67;;
4397;SDS011;2213;49.720;7.296;2023-03-03T07:28:21;7.73;;;4.70;;
4397;SDS011;2213;49.720;7.296;2023-03-03T07:30:53;8.23;;;5.13;;
4397;SDS011;2213;49.720;7.296;2023-03-03T07:33:26;7.67;;;4.57;;
4397;SDS011;2213;49.720;7.296;2023-03-03T07:35:58;11.83;;;5.70;;
4397;SDS011;2213;49.720;7.296;2023-03-03T07:38:33;11.07;;;6.00;;
4397;SDS011;2213;49.720;7.296;2023-03-03T07:41:09;10.70;;;5.07;;
4397;SDS011;2213;49.720;7.296;2023-03-03T07:43:47;10.33;;;5.60;;
4397;SDS011;2213;49.720;7.296;2023-03-03T07:46:22;13.23;;;5.30;;
4397;SDS011;2213;49.720;7.296;2023-03-03T07:48:56;9.53;;;5.13;;
4397;SDS011;2213;49.720;7.296;2023-03-03T07:51:27;10.50;;;6.00;;
4397;SDS011;2213;49.720;7.296;2023-03-03T07:54:16;14.10;;;6.40;;
4397;SDS011;2213;49.720;7.296;2023-03-03T07:56:58;16.13;;;6.73;;
4397;SDS011;2213;49.720;7.296;2023-03-03T07:59:44;17.10;;;6.50;;
4397;SDS011;2213;49.720;7.296;2023-03-03T08:02:25;12.50;;;6.10;;
4397;SDS011;2213;49.720;7.296;2023-03-03T08:08:14;15.63;;;7.30;;
4397;SDS011;2213;49.720;7.296;2023-03-03T08:10:57;14.67;;;6.80;;
4397;SDS011;2213;49.720;7.296;2023-03-03T08:13:28;12.43;;;6.50;;
4397;SDS011;2213;49.720;7.296;2023-03-03T08:16:17;13.50;;;7.40;;
4397;SDS011;2213;49.720;7.296;2023-03-03T08:19:04;16.80;;;8.73;;
4397;SDS011;2213;49.720;7.296;2023-03-03T08:21:34;23.53;;;10.17;;
4397;SDS011;2213;49.720;7.296;2023-03-03T08:24:05;27.50;;;12.40;;
4397;SDS011;2213;49.720;7.296;2023-03-03T08:26:36;21.83;;;10.90;;
4397;SDS011;2213;49.720;7.296;2023-03-03T08:29:06;20.70;;;11.70;;
4397;SDS011;2213;49.720;7.296;2023-03-03T08:31:38;29.63;;;11.13;;
4397;SDS011;2213;49.720;7.296;2023-03-03T08:34:07;21.87;;;12.50;;
4397;SDS011;2213;49.720;7.296;2023-03-03T08:36:37;22.80;;;11.20;;
4397;SDS011;2213;49.720;7.296;2023-03-03T08:39:06;23.87;;;12.17;;
4397;SDS011;2213;49.720;7.296;2023-03-03T08:41:37;26.43;;;12.70;;
4397;SDS011;2213;49.720;7.296;2023-03-03T08:44:10;23.70;;;13.40;;
4397;SDS011;2213;49.720;7.296;2023-03-03T08:46:39;25.80;;;12.13;;
4397;SDS011;2213;49.720;7.296;2023-03-03T08:49:09;19.70;;;10.50;;
4397;SDS011;2213;49.720;7.296;2023-03-03T08:51:39;24.70;;;11.90;;
4397;SDS011;2213;49.720;7.296;2023-03-03T08:54:09;24.53;;;11.97;;
4397;SDS011;2213;49.720;7.296;2023-03-03T08:56:41;22.20;;;12.37;;
4397;SDS011;2213;49.720;7.296;2023-03-03T08:59:11;32.93;;;12.90;;
4397;SDS011;2213;49.720;7.296;2023-03-03T09:01:40;21.03;;;11.20;;
4397;SDS011;2213;49.720;7.296;2023-03-03T09:04:12;21.60;;;11.87;;
4397;SDS011;2213;49.720;7.296;2023-03-03T09:06:41;23.43;;;11.67;;
4397;SDS011;2213;49.720;7.296;2023-03-03T09:09:11;21.30;;;11.63;;
4397;SDS011;2213;49.720;7.296;2023-03-03T09:11:43;29.90;;;13.40;;
4397;SDS011;2213;49.720;7.296;2023-03-03T09:14:14;25.03;;;11.07;;
4397;SDS011;2213;49.720;7.296;2023-03-03T09:16:47;23.40;;;11.60;;
4397;SDS011;2213;49.720;7.296;2023-03-03T09:19:21;25.60;;;12.77;;
4397;SDS011;2213;49.720;7.296;2023-03-03T09:21:58;20.43;;;11.70;;
4397;SDS011;2213;49.720;7.296;2023-03-03T09:24:46;20.17;;;11.23;;
4397;SDS011;2213;49.720;7.296;2023-03-03T09:27:24;24.10;;;12.83;;
4397;SDS011;2213;49.720;7.296;2023-03-03T09:30:00;22.67;;;12.83;;
4397;SDS011;2213;49.720;7.296;2023-03-03T09:32:52;21.97;;;12.23;;
4397;SDS011;2213;49.720;7.296;2023-03-03T09:35:34;24.63;;;12.67;;
4397;SDS011;2213;49.720;7.296;2023-03-03T09:38:12;27.47;;;13.60;;
4397;SDS011;2213;49.720;7.296;2023-03-03T09:41:00;23.70;;;11.30;;
4397;SDS011;2213;49.720;7.296;2023-03-03T09:43:59;28.47;;;13.60;;
4397;SDS011;2213;49.720;7.296;2023-03-03T09:47:07;27.47;;;13.20;;
4397;SDS011;2213;49.720;7.296;2023-03-03T09:49:56;24.77;;;11.17;;
4397;SDS011;2213;49.720;7.296;2023-03-03T09:52:42;25.60;;;12.07;;
4397;SDS011;2213;49.720;7.296;2023-03-03T09:55:22;24.40;;;12.07;;
4397;SDS011;2213;49.720;7.296;2023-03-03T09:58:10;29.20;;;13.83;;
4397;SDS011;2213;49.720;7.296;2023-03-03T10:01:05;21.93;;;10.90;;
4397;SDS011;2213;49.720;7.296;2023-03-03T10:04:15;28.97;;;13.17;;
4397;SDS011;2213;49.720;7.296;2023-03-03T10:07:29;24.03;;;13.10;;
4397;SDS011;2213;49.720;7.296;2023-03-03T10:10:24;20.23;;;11.33;;
4397;SDS011;2213;49.720;7.296;2023-03-03T10:13:25;28.00;;;13.50;;
4397;SDS011;2213;49.720;7.296;2023-03-03T10:19:34;18.77;;;11.33;;
4397;SDS011;2213;49.720;7.296;2023-03-03T10:22:13;25.50;;;10.80;;
4397;SDS011;2213;49.720;7.296;2023-03-03T10:25:02;21.73;;;11.13;;
4397;SDS011;2213;49.720;7.296;2023-03-03T10:27:49;25.33;;;12.63;;
4397;SDS011;2213;49.720;7.296;2023-03-03T10:30:46;27.23;;;12.83;;
4397;SDS011;2213;49.720;7.296;2023-03-03T10:33:42;30.27;;;11.57;;
4397;SDS011;2213;49.720;7.296;2023-03-03T10:36:23;25.43;;;13.73;;
4397;SDS011;2213;49.720;7.296;2023-03-03T10:39:23;20.27;;;12.27;;
4397;SDS011;2213;49.720;7.296;2023-03-03T10:42:44;23.50;;;12.00;;
4397;SDS011;2213;49.720;7.296;2023-03-03T10:45:56;26.03;;;13.17;;
4397;SDS011;2213;49.720;7.296;2023-03-03T10:48:51;25.77;;;12.90;;
4397;SDS011;2213;49.720;7.296;2023-03-03T10:51:55;28.17;;;14.23;;
4397;SDS011;2213;49.720;7.296;2023-03-03T10:54:58;33.00;;;14.10;;
4397;SDS011;2213;49.720;7.296;2023-03-03T10:58:17;25.17;;;13.10;;
4397;SDS011;2213;49.720;7.296;2023-03-03T11:01:25;22.50;;;12.97;;
4397;SDS011;2213;49.720;7.296;2023-03-03T11:04:22;26.60;;;14.63;;
4397;SDS011;2213;49.720;7.296;2023-03-03T11:07:09;36.63;;;14.90;;
4397;SDS011;2213;49.720;7.296;2023-03-03T11:09:57;28.60;;;14.63;;
4397;SDS011;2213;49.720;7.296;2023-03-03T11:12:45;28.20;;;13.93;;
4397;SDS011;2213;49.720;7.296;2023-03-03T11:15:38;27.70;;;14.03;;
4397;SDS011;2213;49.720;7.296;2023-03-03T11:18:23;26.53;;;15.20;;
4397;SDS011;2213;49.720;7.296;2023-03-03T11:21:08;25.50;;;13.87;;
4397;SDS011;2213;49.720;7.296;2023-03-03T11:27:15;32.03;;;14.20;;
4397;SDS011;2213;49.720;7.296;2023-03-03T11:30:27;22.23;;;12.10;;
4397;SDS011;2213;49.720;7.296;2023-03-03T11:33:19;26.90;;;14.20;;
4397;SDS011;2213;49.720;7.296;2023-03-03T11:36:04;30.90;;;14.77;;
4397;SDS011;2213;49.720;7.296;2023-03-03T11:38:53;29.00;;;14.80;;
4397;SDS011;2213;49.720;7.296;2023-03-03T11:41:28;27.13;;;14.60;;
4397;SDS011;2213;49.720;7.296;2023-03-03T11:44:07;26.67;;;14.37;;
4397;SDS011;2213;49.720;7.296;2023-03-03T11:46:47;27.73;;;14.23;;
4397;SDS011;2213;49.720;7.296;2023-03-03T11:49:24;32.80;;;15.80;;
4397;SDS011;2213;49.720;7.296;2023-03-03T11:52:04;28.27;;;15.10;;
4397;SDS011;2213;49.720;7.296;2023-03-03T11:54:53;32.90;;;16.40;;
4397;SDS011;2213;49.720;7.296;2023-03-03T11:57:29;26.03;;;14.07;;
4397;SDS011;2213;49.720;7.296;2023-03-03T12:00:20;27.33;;;14.07;;
4397;SDS011;2213;49.720;7.296;2023-03-03T12:03:23;30.53;;;15.00;;
4397;SDS011;2213;49.720;7.296;2023-03-03T12:06:06;32.60;;;15.40;;
4397;SDS011;2213;49.720;7.296;2023-03-03T12:12:00;32.43;;;14.40;;
4397;SDS011;2213;49.720;7.296;2023-03-03T12:14:46;32.17;;;13.40;;
4397;SDS011;2213;49.720;7.296;2023-03-03T12:17:40;37.27;;;16.00;;
4397;SDS011;2213;49.720;7.296;2023-03-03T12:20:58;30.47;;;15.80;;
4397;SDS011;2213;49.720;7.296;2023-03-03T12:23:51;36.97;;;15.70;;
4397;SDS011;2213;49.720;7.296;2023-03-03T12:26:39;37.77;;;15.70;;
4397;SDS011;2213;49.720;7.296;2023-03-03T12:29:24;38.63;;;15.67;;
4397;SDS011;2213;49.720;7.296;2023-03-03T12:32:03;28.10;;;14.57;;
4397;SDS011;2213;49.720;7.296;2023-03-03T12:34:50;31.37;;;14.10;;
4397;SDS011;2213;49.720;7.296;2023-03-03T12:37:40;35.00;;;16.83;;
4397;SDS011;2213;49.720;7.296;2023-03-03T12:40:23;30.90;;;14.37;;
4397;SDS011;2213;49.720;7.296;2023-03-03T12:43:04;34.10;;;15.43;;
4397;SDS011;2213;49.720;7.296;2023-03-03T12:45:51;26.77;;;14.97;;
4397;SDS011;2213;49.720;7.296;2023-03-03T12:48:35;30.00;;;15.30;;
4397;SDS011;2213;49.720;7.296;2023-03-03T12:51:13;28.67;;;13.97;;
4397;SDS011;2213;49.720;7.296;2023-03-03T12:54:09;27.73;;;15.43;;
4397;SDS011;2213;49.720;7.296;2023-03-03T12:57:04;30.80;;;15.83;;
4397;SDS011;2213;49.720;7.296;2023-03-03T12:59:52;35.60;;;14.23;;
4397;SDS011;2213;49.720;7.296;2023-03-03T13:02:43;31.57;;;15.97;;
4397;SDS011;2213;49.720;7.296;2023-03-03T13:05:29;29.50;;;15.53;;
4397;SDS011;2213;49.720;7.296;2023-03-03T13:08:21;32.80;;;15.43;;
4397;SDS011;2213;49.720;7.296;2023-03-03T13:11:17;34.03;;;16.60;;
4397;SDS011;2213;49.720;7.296;2023-03-03T13:14:10;30.83;;;15.27;;
4397;SDS011;2213;49.720;7.296;2023-03-03T13:16:59;40.53;;;15.43;;
4397;SDS011;2213;49.720;7.296;2023-03-03T13:19:43;29.67;;;15.47;;
4397;SDS011;2213;49.720;7.296;2023-03-03T13:22:22;33.53;;;15.77;;
4397;SDS011;2213;49.720;7.296;2023-03-03T13:25:07;29.20;;;14.93;;
4397;SDS011;2213;49.720;7.296;2023-03-03T13:28:04;33.20;;;15.20;;
4397;SDS011;2213;49.720;7.296;2023-03-03T13:30:42;29.97;;;15.30;;
4397;SDS011;2213;49.720;7.296;2023-03-03T13:33:19;31.57;;;15.77;;
4397;SDS011;2213;49.720;7.296;2023-03-03T13:35:58;33.87;;;14.93;;
4397;SDS011;2213;49.720;7.296;2023-03-03T13:38:34;30.77;;;15.20;;
4397;SDS011;2213;49.720;7.296;2023-03-03T13:41:14;28.00;;;14.13;;
4397;SDS011;2213;49.720;7.296;2023-03-03T13:43:53;30.83;;;14.87;;
4397;SDS011;2213;49.720;7.296;2023-03-03T13:46:33;24.40;;;13.40;;
4397;SDS011;2213;49.720;7.296;2023-03-03T13:49:25;31.03;;;15.77;;
4397;SDS011;2213;49.720;7.296;2023-03-03T13:52:14;28.23;;;14.13;;
4397;SDS011;2213;49.720;7.296;2023-03-03T13:54:52;30.97;;;14.80;;
4397;SDS011;2213;49.720;7.296;2023-03-03T13:57:43;33.87;;;14.97;;
4397;SDS011;2213;49.720;7.296;2023-03-03T14:00:28;35.33;;;16.00;;
4397;SDS011;2213;49.720;7.296;2023-03-03T14:03:10;34.03;;;16.63;;
4397;SDS011;2213;49.720;7.296;2023-03-03T14:06:21;25.27;;;13.87;;
4397;SDS011;2213;49.720;7.296;2023-03-03T14:08:59;25.27;;;14.27;;
4397;SDS011;2213;49.720;7.296;2023-03-03T14:12:03;36.43;;;15.47;;
4397;SDS011;2213;49.720;7.296;2023-03-03T14:14:46;24.23;;;12.13;;
4397;SDS011;2213;49.720;7.296;2023-03-03T14:17:31;29.90;;;13.30;;
4397;SDS011;2213;49.720;7.296;2023-03-03T14:20:14;25.27;;;13.37;;
4397;SDS011;2213;49.720;7.296;2023-03-03T14:22:53;23.57;;;13.53;;
4397;SDS011;2213;49.720;7.296;2023-03-03T14:25:31;28.00;;;13.40;;
4397;SDS011;2213;49.720;7.296;2023-03-03T14:28:24;30.50;;;14.63;;
4397;SDS011;2213;49.720;7.296;2023-03-03T14:30:56;32.23;;;15.73;;
4397;SDS011;2213;49.720;7.296;2023-03-03T14:33:42;26.90;;;15.40;;
4397;SDS011;2213;49.720;7.296;2023-03-03T14:36:25;26.80;;;13.83;;
4397;SDS011;2213;49.720;7.296;2023-03-03T14:39:00;32.63;;;16.10;;
4397;SDS011;2213;49.720;7.296;2023-03-03T14:41:37;35.50;;;14.70;;
4397;SDS011;2213;49.720;7.296;2023-03-03T14:44:23;33.20;;;16.00;;
4397;SDS011;2213;49.720;7.296;2023-03-03T14:47:05;27.40;;;14.90;;
4397;SDS011;2213;49.720;7.296;2023-03-03T14:49:50;29.23;;;15.73;;
4397;SDS011;2213;49.720;7.296;2023-03-03T14:52:22;27.37;;;14.53;;
4397;SDS011;2213;49.720;7.296;2023-03-03T14:54:55;31.17;;;14.43;;
4397;SDS011;2213;49.720;7.296;2023-03-03T14:57:37;27.87;;;14.60;;
4397;SDS011;2213;49.720;7.296;2023-03-03T15:03:04;31.57;;;14.83;;
4397;SDS011;2213;49.720;7.296;2023-03-03T15:05:51;29.43;;;13.30;;
4397;SDS011;2213;49.720;7.296;2023-03-03T15:08:26;31.40;;;16.47;;
4397;SDS011;2213;49.720;7.296;2023-03-03T15:11:12;29.60;;;14.70;;
4397;SDS011;2213;49.720;7.296;2023-03-03T15:14:03;26.17;;;14.20;;
4397;SDS011;2213;49.720;7.296;2023-03-03T15:16:41;26.67;;;14.47;;
4397;SDS011;2213;49.720;7.296;2023-03-03T15:22:19;30.53;;;15.20;;
4397;SDS011;2213;49.720;7.296;2023-03-03T15:25:17;25.17;;;14.33;;
4397;SDS011;2213;49.720;7.296;2023-03-03T15:28:19;30.47;;;14.47;;
4397;SDS011;2213;49.720;7.296;2023-03-03T15:31:01;36.30;;;12.87;;
4397;SDS011;2213;49.720;7.296;2023-03-03T15:33:45;29.17;;;14.13;;
4397;SDS011;2213;49.720;7.296;2023-03-03T15:36:30;26.90;;;13.40;;
4397;SDS011;2213;49.720;7.296;2023-03-03T15:39:14;23.13;;;12.50;;
4397;SDS011;2213;49.720;7.296;2023-03-03T15:41:58;28.73;;;13.87;;
4397;SDS011;2213;49.720;7.296;2023-03-03T15:44:41;27.60;;;13.30;;
4397;SDS011;2213;49.720;7.296;2023-03-03T15:47:35;25.57;;;13.10;;
4397;SDS011;2213;49.720;7.296;2023-03-03T15:50:25;28.87;;;14.13;;
4397;SDS011;2213;49.720;7.296;2023-03-03T15:53:25;24.37;;;14.20;;
4397;SDS011;2213;49.720;7.296;2023-03-03T15:56:15;31.60;;;14.17;;
4397;SDS011;2213;49.720;7.296;2023-03-03T16:02:31;30.20;;;13.37;;
4397;SDS011;2213;49.720;7.296;2023-03-03T16:05:17;28.50;;;14.27;;
4397;SDS011;2213;49.720;7.296;2023-03-03T16:07:58;28.57;;;15.00;;
4397;SDS011;2213;49.720;7.296;2023-03-03T16:10:42;28.37;;;15.37;;
4397;SDS011;2213;49.720;7.296;2023-03-03T16:13:40;29.07;;;14.27;;
4397;SDS011;2213;49.720;7.296;2023-03-03T16:16:45;27.87;;;14.03;;
4397;SDS011;2213;49.720;7.296;2023-03-03T16:19:28;27.13;;;13.63;;
4397;SDS011;2213;49.720;7.296;2023-03-03T16:22:19;36.40;;;16.90;;
4397;SDS011;2213;49.720;7.296;2023-03-03T16:29:08;28.80;;;14.13;;
4397;SDS011;2213;49.720;7.296;2023-03-03T16:31:57;27.57;;;16.23;;
4397;SDS011;2213;49.720;7.296;2023-03-03T16:34:38;30.60;;;14.33;;
4397;SDS011;2213;49.720;7.296;2023-03-03T16:37:24;27.43;;;13.80;;
4397;SDS011;2213;49.720;7.296;2023-03-03T16:40:02;25.67;;;14.03;;